Time;durP1;ratioP1;P1;durP2;ratioP2;P2;SDS_P1;SDS_P2;PMS_P1;PMS_P2;Temp;Humidity;BMP_temperature;BMP_pressure;BME280_temperature;BME280_humidity;BME280_pressure;Samples;Min_cycle;Max_cycle;Signal;HPM_P1;HPM_P2
2023/05/05 00:00:19;;;;;;;;;;;20.30;55.00;;;;;;5061364;28;19908;-88
2023/05/05 00:02:45;;;;;;;;;;;20.40;55.10;;;;;;5061005;28;20244;-86
2023/05/05 00:05:11;;;;;;;;;;;20.30;55.00;;;;;;5059664;28;19912;-86
2023/05/05 00:07:36;;;;;;;;;;;20.30;55.00;;;;;;5060890;28;19908;-87
2023/05/05 00:10:03;;;;;;;;;;;20.30;55.00;;;;;;5059784;28;19912;-87
2023/05/05 00:12:29;;;;;;;;;;;20.30;55.00;;;;;;5060944;28;19969;-86
2023/05/05 00:14:54;;;;;;;;;;;20.30;55.00;;;;;;5060461;28;19965;-86
2023/05/05 00:17:20;;;;;;;;;;;20.30;55.00;;;;;;5061115;28;20163;-87
2023/05/05 00:19:46;;;;;;;;;;;20.30;54.90;;;;;;5060350;28;19928;-87
2023/05/05 00:22:11;;;;;;;;;;;20.30;55.00;;;;;;5060021;28;19908;-87
2023/05/05 00:24:37;;;;;;;;;;;20.30;55.00;;;;;;5059767;28;19924;-87
2023/05/05 00:27:02;;;;;;;;;;;20.30;55.00;;;;;;5059062;28;19917;-88
2023/05/05 00:29:28;;;;;;;;;;;20.30;55.00;;;;;;5060371;28;19915;-85
2023/05/05 00:31:55;;;;;;;;;;;20.30;55.00;;;;;;5058781;28;19912;-87
2023/05/05 00:34:21;;;;;;;;;;;20.20;55.00;;;;;;5059525;28;19912;-87
2023/05/05 00:36:46;;;;;;;;;;;20.30;55.00;;;;;;5060363;28;20111;-86
2023/05/05 00:39:12;;;;;;;;;;;20.30;55.00;;;;;;5061385;28;19919;-88
2023/05/05 00:41:38;;;;;;;;;;;20.20;55.00;;;;;;5060477;28;20278;-87
2023/05/05 00:44:04;;;;;;;;;;;20.30;55.00;;;;;;5058763;28;19920;-88
2023/05/05 00:46:30;;;;;;;;;;;20.20;55.00;;;;;;5058349;28;19909;-88
2023/05/05 00:48:56;;;;;;;;;;;20.20;55.00;;;;;;5058463;28;20014;-87
2023/05/05 00:51:23;;;;;;;;;;;20.20;55.00;;;;;;5057698;28;19917;-88
2023/05/05 00:53:49;;;;;;;;;;;20.20;55.00;;;;;;5057364;28;20149;-88
2023/05/05 00:56:15;;;;;;;;;;;20.20;55.00;;;;;;5057065;28;19908;-88
2023/05/05 00:58:42;;;;;;;;;;;20.20;55.00;;;;;;5058506;28;20021;-88
2023/05/05 01:01:08;;;;;;;;;;;20.20;55.00;;;;;;5057533;28;19920;-88
2023/05/05 01:03:37;;;;;;;;;;;20.20;55.50;;;;;;5056646;28;19913;-88
2023/05/05 01:06:09;;;;;;;;;;;20.20;55.00;;;;;;5057058;28;19913;-88
2023/05/05 01:08:45;;;;;;;;;;;20.20;55.10;;;;;;5055833;28;19909;-88
2023/05/05 01:11:19;;;;;;;;;;;20.20;55.10;;;;;;5057761;28;19908;-88
2023/05/05 01:14:10;;;;;;;;;;;20.20;55.10;;;;;;5057986;28;19920;-87
2023/05/05 01:16:37;;;;;;;;;;;20.20;55.10;;;;;;5057161;28;19978;-88
2023/05/05 01:19:15;;;;;;;;;;;20.20;55.10;;;;;;5056815;28;19955;-88
2023/05/05 01:21:43;;;;;;;;;;;20.20;55.10;;;;;;5055899;28;19920;-88
2023/05/05 01:24:14;;;;;;;;;;;20.20;55.20;;;;;;5057798;28;19924;-88
2023/05/05 01:26:59;;;;;;;;;;;20.20;55.20;;;;;;5056416;28;19931;-88
2023/05/05 01:29:34;;;;;;;;;;;20.20;55.20;;;;;;5089479;28;19908;-87
2023/05/05 01:32:01;;;;;;;;;;;20.20;55.30;;;;;;5074994;28;19951;-87
2023/05/05 01:34:31;;;;;;;;;;;20.20;55.30;;;;;;5075403;28;19909;-88
2023/05/05 01:37:06;;;;;;;;;;;20.20;55.30;;;;;;5075395;28;19909;-88
2023/05/05 01:39:32;;;;;;;;;;;20.20;55.30;;;;;;5060095;28;19908;-88
2023/05/05 01:42:01;;;;;;;;;;;20.20;55.30;;;;;;5062900;28;19916;-88
2023/05/05 01:44:28;;;;;;;;;;;20.10;55.30;;;;;;5061047;28;19916;-88
2023/05/05 01:46:54;;;;;;;;;;;20.10;55.40;;;;;;5062003;28;20014;-88
2023/05/05 01:49:20;;;;;;;;;;;20.10;55.40;;;;;;5075926;28;20164;-88
2023/05/05 01:51:46;;;;;;;;;;;20.10;55.40;;;;;;5057234;28;19952;-88
2023/05/05 01:54:14;;;;;;;;;;;20.10;55.40;;;;;;5058458;28;19921;-88
2023/05/05 01:56:40;;;;;;;;;;;20.10;55.40;;;;;;5057706;28;20148;-88
2023/05/05 01:59:06;;;;;;;;;;;20.10;55.40;;;;;;5057499;28;19908;-88
2023/05/05 02:01:34;;;;;;;;;;;20.10;55.50;;;;;;5057616;28;19908;-88
2023/05/05 02:04:00;;;;;;;;;;;20.10;55.40;;;;;;5058808;28;20132;-88
2023/05/05 02:06:28;;;;;;;;;;;20.10;55.50;;;;;;5059486;28;19970;-88
2023/05/05 02:08:57;;;;;;;;;;;20.10;55.50;;;;;;5059731;28;19909;-88
2023/05/05 02:11:22;;;;;;;;;;;20.00;55.50;;;;;;5060228;28;19919;-88
2023/05/05 02:13:49;;;;;;;;;;;20.00;55.50;;;;;;5059654;28;19984;-88
2023/05/05 02:16:16;;;;;;;;;;;20.10;55.60;;;;;;5059885;28;20289;-88
2023/05/05 02:18:42;;;;;;;;;;;20.10;55.60;;;;;;5059133;28;19917;-88
2023/05/05 02:21:07;;;;;;;;;;;20.00;55.60;;;;;;5076573;28;19958;-88
2023/05/05 02:23:35;;;;;;;;;;;20.00;55.60;;;;;;5060914;28;19951;-88
2023/05/05 02:26:08;;;;;;;;;;;20.00;55.60;;;;;;5060700;28;20315;-88
2023/05/05 02:28:43;;;;;;;;;;;20.00;55.70;;;;;;5060916;28;20274;-88
2023/05/05 02:31:10;;;;;;;;;;;20.00;55.70;;;;;;5060135;28;19909;-88
2023/05/05 02:33:36;;;;;;;;;;;20.00;55.70;;;;;;5060945;28;19944;-88
2023/05/05 02:36:10;;;;;;;;;;;20.00;55.70;;;;;;5060338;28;19916;-88
2023/05/05 02:38:39;;;;;;;;;;;20.00;55.70;;;;;;5060351;28;20285;-88
2023/05/05 02:41:06;;;;;;;;;;;20.00;55.70;;;;;;5060245;28;20181;-88
2023/05/05 02:43:32;;;;;;;;;;;20.00;55.80;;;;;;5059626;28;19916;-88
2023/05/05 02:45:58;;;;;;;;;;;20.00;55.80;;;;;;5058824;28;19913;-88
2023/05/05 02:48:24;;;;;;;;;;;19.90;55.80;;;;;;5059382;28;19908;-88
2023/05/05 02:50:49;;;;;;;;;;;19.90;55.70;;;;;;5059186;28;19920;-88
2023/05/05 02:53:15;;;;;;;;;;;19.90;55.90;;;;;;5059408;28;19932;-88
2023/05/05 02:55:50;;;;;;;;;;;19.90;55.90;;;;;;5059385;28;19988;-88
2023/05/05 02:58:23;;;;;;;;;;;19.90;55.90;;;;;;5077245;28;19908;-88
2023/05/05 03:00:54;;;;;;;;;;;19.90;55.90;;;;;;5059240;28;19920;-88
2023/05/05 03:03:43;;;;;;;;;;;19.90;55.90;;;;;;5058563;28;19908;-88
2023/05/05 03:06:12;;;;;;;;;;;19.90;55.90;;;;;;5057987;28;19912;-87
2023/05/05 03:08:59;;;;;;;;;;;19.90;55.90;;;;;;5058355;28;19912;-88
2023/05/05 03:11:31;;;;;;;;;;;19.90;55.90;;;;;;5058765;28;19908;-88
2023/05/05 03:14:05;;;;;;;;;;;19.90;55.90;;;;;;5058591;28;19951;-87
2023/05/05 03:16:33;;;;;;;;;;;19.80;56.00;;;;;;5056794;28;20018;-88
2023/05/05 03:19:00;;;;;;;;;;;19.80;56.00;;;;;;5057181;28;19922;-88
2023/05/05 03:21:26;;;;;;;;;;;19.80;56.00;;;;;;5058061;28;20258;-88
2023/05/05 03:23:52;;;;;;;;;;;19.90;56.10;;;;;;5058449;28;19919;-88
2023/05/05 03:26:17;;;;;;;;;;;19.80;56.00;;;;;;5057994;28;19913;-88
2023/05/05 03:28:43;;;;;;;;;;;19.80;56.00;;;;;;5057201;28;19951;-88
2023/05/05 03:31:09;;;;;;;;;;;19.80;56.10;;;;;;5057368;28;19916;-88
2023/05/05 03:33:35;;;;;;;;;;;19.80;56.10;;;;;;5057435;28;19908;-88
2023/05/05 03:36:00;;;;;;;;;;;19.80;56.00;;;;;;5057747;28;19908;-88
2023/05/05 03:38:26;;;;;;;;;;;19.80;56.10;;;;;;5056339;28;20254;-88
2023/05/05 03:40:51;;;;;;;;;;;19.80;56.10;;;;;;5057672;28;19909;-88
2023/05/05 03:43:18;;;;;;;;;;;19.80;56.10;;;;;;5058061;28;20253;-87
2023/05/05 03:45:43;;;;;;;;;;;19.80;56.10;;;;;;5059428;28;19952;-88
2023/05/05 03:48:09;;;;;;;;;;;19.80;56.10;;;;;;5057284;28;20238;-87
2023/05/05 03:50:35;;;;;;;;;;;19.80;56.10;;;;;;5056549;28;19939;-87
2023/05/05 03:53:01;;;;;;;;;;;19.80;56.10;;;;;;5056706;28;19908;-88
2023/05/05 03:55:28;;;;;;;;;;;19.80;56.20;;;;;;5089647;28;20206;-88
2023/05/05 03:57:54;;;;;;;;;;;19.80;56.20;;;;;;5056697;28;19986;-87
2023/05/05 04:00:20;;;;;;;;;;;19.80;56.20;;;;;;5056447;28;20192;-88
2023/05/05 04:02:45;;;;;;;;;;;19.70;56.10;;;;;;5056300;28;19913;-88
2023/05/05 04:05:11;;;;;;;;;;;19.80;56.20;;;;;;5054806;28;19912;-88
2023/05/05 04:07:37;;;;;;;;;;;19.80;56.20;;;;;;5054485;28;20253;-88
2023/05/05 04:10:02;;;;;;;;;;;19.80;56.20;;;;;;5071742;28;19974;-86
2023/05/05 04:12:28;;;;;;;;;;;19.80;56.20;;;;;;5053528;28;19916;-86
2023/05/05 04:14:53;;;;;;;;;;;19.70;56.20;;;;;;5088470;28;20187;-86
2023/05/05 04:17:19;;;;;;;;;;;19.80;56.30;;;;;;5070830;28;19920;-86
2023/05/05 04:19:45;;;;;;;;;;;19.80;56.20;;;;;;5087381;28;19916;-86
2023/05/05 04:22:10;;;;;;;;;;;19.70;56.20;;;;;;5053041;28;20015;-86
2023/05/05 04:24:36;;;;;;;;;;;19.80;56.30;;;;;;5053498;28;20014;-85
2023/05/05 04:27:02;;;;;;;;;;;19.80;56.20;;;;;;5054402;28;20069;-86
2023/05/05 04:29:27;;;;;;;;;;;19.70;56.20;;;;;;5054978;28;19999;-86
2023/05/05 04:31:53;;;;;;;;;;;19.80;56.30;;;;;;5054004;28;20066;-86
2023/05/05 04:34:18;;;;;;;;;;;19.80;56.20;;;;;;5053078;28;19951;-86
2023/05/05 04:36:44;;;;;;;;;;;19.80;56.30;;;;;;5053382;28;19940;-86
2023/05/05 04:39:09;;;;;;;;;;;19.80;56.30;;;;;;5087046;28;19931;-86
2023/05/05 04:41:35;;;;;;;;;;;19.80;56.20;;;;;;5052145;28;19908;-86
2023/05/05 04:44:01;;;;;;;;;;;19.80;56.20;;;;;;5052383;28;20175;-86
2023/05/05 04:46:26;;;;;;;;;;;19.80;56.20;;;;;;5051536;28;19946;-86
2023/05/05 04:48:52;;;;;;;;;;;19.80;56.20;;;;;;5053357;28;19908;-86
2023/05/05 04:51:18;;;;;;;;;;;19.90;56.30;;;;;;5052471;28;20253;-86
2023/05/05 04:53:43;;;;;;;;;;;19.90;56.30;;;;;;5052459;28;19969;-86
2023/05/05 04:56:09;;;;;;;;;;;19.90;56.40;;;;;;5050887;28;19917;-86
2023/05/05 04:58:35;;;;;;;;;;;19.90;56.40;;;;;;5051567;28;19909;-86
2023/05/05 05:01:00;;;;;;;;;;;19.90;56.40;;;;;;5053472;28;19908;-87
2023/05/05 05:03:26;;;;;;;;;;;19.90;56.40;;;;;;5050940;28;19909;-86
2023/05/05 05:05:51;;;;;;;;;;;19.90;56.40;;;;;;5048280;28;19972;-87
2023/05/05 05:08:18;;;;;;;;;;;19.90;56.50;;;;;;5083229;28;19912;-87
2023/05/05 05:10:43;;;;;;;;;;;19.90;56.50;;;;;;5048529;28;19909;-87
2023/05/05 05:13:09;;;;;;;;;;;20.00;56.50;;;;;;5050552;28;20468;-87
2023/05/05 05:15:37;;;;;;;;;;;20.00;56.60;;;;;;5052026;28;19909;-87
2023/05/05 05:18:03;;;;;;;;;;;20.00;56.60;;;;;;5052411;28;20331;-87
2023/05/05 05:20:29;;;;;;;;;;;20.00;56.60;;;;;;5052463;28;20378;-87
2023/05/05 05:22:56;;;;;;;;;;;20.10;56.70;;;;;;5051353;28;20107;-87
2023/05/05 05:25:22;;;;;;;;;;;20.10;56.60;;;;;;5050426;28;19913;-87
2023/05/05 05:27:47;;;;;;;;;;;20.10;56.50;;;;;;5054569;28;19908;-87
2023/05/05 05:30:13;;;;;;;;;;;20.20;56.50;;;;;;5051877;28;20495;-87
2023/05/05 05:32:39;;;;;;;;;;;20.20;56.50;;;;;;5051828;28;20151;-87
2023/05/05 05:35:05;;;;;;;;;;;20.30;56.40;;;;;;5069554;28;20141;-87
2023/05/05 05:37:30;;;;;;;;;;;20.30;56.40;;;;;;5071853;28;19944;-87
2023/05/05 05:39:56;;;;;;;;;;;20.40;56.40;;;;;;5054495;28;19939;-87
2023/05/05 05:42:21;;;;;;;;;;;20.30;56.30;;;;;;5050114;28;19916;-87
2023/05/05 05:44:47;;;;;;;;;;;20.40;56.30;;;;;;5068356;28;19923;-87
2023/05/05 05:47:13;;;;;;;;;;;20.40;56.30;;;;;;5057442;28;20143;-87
2023/05/05 05:49:39;;;;;;;;;;;20.50;56.30;;;;;;5051764;28;19912;-87
2023/05/05 05:52:05;;;;;;;;;;;20.50;56.20;;;;;;5049914;28;19908;-87
2023/05/05 05:54:33;;;;;;;;;;;20.50;56.10;;;;;;5050680;28;19998;-87
2023/05/05 05:56:58;;;;;;;;;;;20.60;56.10;;;;;;5048737;28;20027;-87
2023/05/05 05:59:24;;;;;;;;;;;20.60;56.00;;;;;;5048416;28;20026;-87
2023/05/05 06:01:49;;;;;;;;;;;20.70;55.90;;;;;;5048563;28;20323;-87
2023/05/05 06:04:15;;;;;;;;;;;20.80;55.90;;;;;;5051520;28;20210;-87
2023/05/05 06:06:40;;;;;;;;;;;20.80;55.80;;;;;;5053776;28;19909;-86
2023/05/05 06:09:06;;;;;;;;;;;20.90;55.70;;;;;;5070612;28;19909;-87
2023/05/05 06:11:33;;;;;;;;;;;21.00;55.60;;;;;;5085356;28;20220;-87
2023/05/05 06:13:59;;;;;;;;;;;21.10;55.70;;;;;;5070493;28;19963;-87
2023/05/05 06:16:24;;;;;;;;;;;21.10;55.70;;;;;;5055572;28;20088;-87
2023/05/05 06:18:50;;;;;;;;;;;21.10;55.70;;;;;;5084868;28;19916;-87
2023/05/05 06:21:19;;;;;;;;;;;21.20;55.60;;;;;;5052189;28;20140;-87
2023/05/05 06:23:45;;;;;;;;;;;21.30;55.60;;;;;;5049781;28;20281;-87
2023/05/05 06:26:11;;;;;;;;;;;21.30;55.60;;;;;;5051330;28;19912;-87
2023/05/05 06:28:36;;;;;;;;;;;21.40;55.50;;;;;;5049959;28;19935;-87
2023/05/05 06:31:02;;;;;;;;;;;21.50;55.40;;;;;;5050324;28;19912;-87
2023/05/05 06:33:28;;;;;;;;;;;21.60;55.40;;;;;;5052512;28;20163;-87
2023/05/05 06:35:53;;;;;;;;;;;21.60;55.30;;;;;;5052016;28;19916;-87
2023/05/05 06:38:19;;;;;;;;;;;21.80;55.20;;;;;;5053595;28;20244;-87
2023/05/05 06:40:48;;;;;;;;;;;22.00;55.90;;;;;;5054875;28;19966;-87
2023/05/05 06:43:14;;;;;;;;;;;22.10;55.60;;;;;;5052411;28;19995;-87
2023/05/05 06:45:40;;;;;;;;;;;22.40;55.70;;;;;;5050175;28;20252;-87
2023/05/05 06:48:05;;;;;;;;;;;22.50;55.40;;;;;;5085295;28;19969;-87
2023/05/05 06:50:31;;;;;;;;;;;22.70;55.40;;;;;;5053668;28;20289;-87
2023/05/05 06:52:56;;;;;;;;;;;22.90;55.00;;;;;;5086025;28;20303;-87
2023/05/05 06:55:22;;;;;;;;;;;23.30;54.60;;;;;;5082070;28;19993;-87
2023/05/05 06:57:48;;;;;;;;;;;23.70;53.80;;;;;;5066631;28;20086;-87
2023/05/05 07:00:13;;;;;;;;;;;24.00;53.30;;;;;;5050517;28;20501;-87
2023/05/05 07:02:40;;;;;;;;;;;24.30;52.90;;;;;;5049449;28;20335;-87
2023/05/05 07:05:05;;;;;;;;;;;24.60;52.50;;;;;;5048432;28;20297;-87
2023/05/05 07:07:31;;;;;;;;;;;24.70;52.00;;;;;;5052429;28;19908;-87
2023/05/05 07:09:57;;;;;;;;;;;24.80;51.80;;;;;;5053652;28;19909;-87
2023/05/05 07:12:22;;;;;;;;;;;24.90;51.70;;;;;;5067901;28;19916;-87
2023/05/05 07:14:48;;;;;;;;;;;24.90;51.40;;;;;;5050202;28;19909;-87
2023/05/05 07:17:13;;;;;;;;;;;25.00;51.40;;;;;;5051046;28;19923;-86
2023/05/05 07:19:39;;;;;;;;;;;25.10;51.20;;;;;;5047958;28;19924;-86
2023/05/05 07:22:04;;;;;;;;;;;25.10;51.10;;;;;;5048790;28;19919;-86
2023/05/05 07:24:30;;;;;;;;;;;25.10;51.10;;;;;;5047999;28;19923;-87
2023/05/05 07:26:56;;;;;;;;;;;25.10;51.10;;;;;;5049578;28;19908;-87
2023/05/05 07:29:21;;;;;;;;;;;25.20;50.90;;;;;;5051499;28;19913;-87
2023/05/05 07:31:47;;;;;;;;;;;25.10;50.70;;;;;;5084365;28;19908;-87
2023/05/05 07:34:12;;;;;;;;;;;25.40;50.80;;;;;;5047697;28;20449;-87
2023/05/05 07:36:38;;;;;;;;;;;25.40;50.50;;;;;;5046838;28;19939;-88
2023/05/05 07:39:04;;;;;;;;;;;25.30;50.60;;;;;;5046918;28;20300;-87
2023/05/05 07:41:29;;;;;;;;;;;25.20;50.60;;;;;;5049386;28;20062;-87
2023/05/05 07:43:55;;;;;;;;;;;25.10;50.70;;;;;;5047710;28;19909;-87
2023/05/05 07:46:20;;;;;;;;;;;25.10;50.80;;;;;;5048461;28;20120;-87
2023/05/05 07:48:46;;;;;;;;;;;25.20;50.70;;;;;;5079930;28;20011;-88
2023/05/05 07:51:12;;;;;;;;;;;25.30;50.60;;;;;;5047305;28;19916;-87
2023/05/05 07:53:37;;;;;;;;;;;25.50;50.90;;;;;;5081248;28;20018;-87
2023/05/05 07:56:03;;;;;;;;;;;25.80;50.20;;;;;;5047886;28;20311;-87
2023/05/05 07:58:28;;;;;;;;;;;26.20;49.90;;;;;;5082582;28;20184;-88
2023/05/05 08:00:54;;;;;;;;;;;26.30;49.60;;;;;;5048273;28;19916;-87
2023/05/05 08:03:22;;;;;;;;;;;26.30;49.50;;;;;;5079782;28;20269;-87
2023/05/05 08:05:48;;;;;;;;;;;26.50;49.30;;;;;;5065828;28;19920;-88
2023/05/05 08:08:14;;;;;;;;;;;26.50;49.20;;;;;;5047916;28;20091;-88
2023/05/05 08:10:40;;;;;;;;;;;26.50;49.20;;;;;;5047887;28;19908;-88
2023/05/05 08:13:05;;;;;;;;;;;26.80;49.00;;;;;;5048370;28;20191;-89
2023/05/05 08:15:31;;;;;;;;;;;27.20;48.90;;;;;;5047572;28;20011;-87
2023/05/05 08:17:57;;;;;;;;;;;27.40;48.50;;;;;;5048034;28;20170;-88
2023/05/05 08:20:26;;;;;;;;;;;27.30;48.40;;;;;;5049101;28;19977;-88
2023/05/05 08:22:52;;;;;;;;;;;27.30;48.30;;;;;;5049498;28;19908;-87
2023/05/05 08:25:17;;;;;;;;;;;27.40;48.10;;;;;;5049018;28;19978;-87
2023/05/05 08:27:43;;;;;;;;;;;27.30;48.10;;;;;;5063627;28;19974;-87
2023/05/05 08:30:09;;;;;;;;;;;27.20;48.20;;;;;;5047989;28;19958;-88
2023/05/05 08:32:35;;;;;;;;;;;27.40;48.10;;;;;;5064498;28;19916;-87
2023/05/05 08:35:02;;;;;;;;;;;27.50;48.10;;;;;;5064528;28;19909;-87
2023/05/05 08:37:28;;;;;;;;;;;27.60;47.80;;;;;;5065625;28;19909;-88
2023/05/05 08:39:54;;;;;;;;;;;27.90;47.70;;;;;;5046492;28;19974;-87
2023/05/05 08:42:20;;;;;;;;;;;28.00;47.50;;;;;;5045546;28;19908;-87
2023/05/05 08:44:46;;;;;;;;;;;28.30;47.60;;;;;;5051225;28;20020;-88
2023/05/05 08:47:13;;;;;;;;;;;29.00;47.20;;;;;;5045825;28;19909;-87
2023/05/05 08:49:45;;;;;;;;;;;29.30;46.80;;;;;;5045820;28;19909;-88
2023/05/05 08:52:16;;;;;;;;;;;29.40;46.40;;;;;;5063623;28;19908;-88
2023/05/05 08:54:45;;;;;;;;;;;29.50;46.30;;;;;;5045491;28;20006;-87
2023/05/05 08:57:12;;;;;;;;;;;29.60;46.30;;;;;;5044541;28;19939;-88
2023/05/05 08:59:38;;;;;;;;;;;29.80;46.00;;;;;;5044007;28;19950;-88
2023/05/05 09:02:04;;;;;;;;;;;30.10;46.00;;;;;;5061622;28;19908;-88
2023/05/05 09:04:30;;;;;;;;;;;30.30;45.60;;;;;;5053349;28;19912;-87
2023/05/05 09:06:56;;;;;;;;;;;30.40;45.50;;;;;;5070437;28;19919;-88
2023/05/05 09:09:22;;;;;;;;;;;30.40;45.30;;;;;;5055876;28;19998;-88
2023/05/05 09:11:50;;;;;;;;;;;30.50;45.20;;;;;;5053538;28;20023;-88
2023/05/05 09:14:16;;;;;;;;;;;30.70;45.20;;;;;;5054088;28;19916;-88
2023/05/05 09:16:42;;;;;;;;;;;30.90;45.10;;;;;;5049560;28;20199;-88
2023/05/05 09:19:07;;;;;;;;;;;31.00;45.00;;;;;;5051992;28;19916;-88
2023/05/05 09:21:33;;;;;;;;;;;31.10;44.90;;;;;;5053258;28;20043;-88
2023/05/05 09:24:09;;;;;;;;;;;31.40;44.70;;;;;;5054566;28;19909;-89
2023/05/05 09:26:36;;;;;;;;;;;31.50;44.50;;;;;;5058989;28;19912;-86
2023/05/05 09:29:02;;;;;;;;;;;31.90;44.40;;;;;;5054068;28;19908;-86
2023/05/05 09:31:31;;;;;;;;;;;32.00;44.20;;;;;;5071606;28;19919;-86
2023/05/05 09:33:59;;;;;;;;;;;32.10;44.00;;;;;;5053835;28;19923;-86
2023/05/05 09:36:46;;;;;;;;;;;32.30;43.90;;;;;;5050719;28;20435;-86
2023/05/05 09:39:12;;;;;;;;;;;32.40;43.80;;;;;;5049130;28;20019;-87
2023/05/05 09:41:39;;;;;;;;;;;32.70;43.70;;;;;;5059100;28;19909;-86
2023/05/05 09:44:05;;;;;;;;;;;32.00;43.50;;;;;;5044687;28;20290;-86
2023/05/05 09:46:31;;;;;;;;;;;31.20;44.00;;;;;;5045275;28;19927;-89
2023/05/05 09:49:10;;;;;;;;;;;30.70;44.60;;;;;;5046092;28;19909;-89
2023/05/05 09:51:35;;;;;;;;;;;31.60;44.40;;;;;;5064073;28;20179;-89
2023/05/05 09:54:01;;;;;;;;;;;31.10;44.10;;;;;;5048456;28;20127;-86
2023/05/05 09:56:39;;;;;;;;;;;30.80;44.70;;;;;;5046288;28;19920;-86
2023/05/05 09:59:08;;;;;;;;;;;31.30;45.00;;;;;;5071131;28;19920;-86
2023/05/05 10:01:33;;;;;;;;;;;31.70;44.20;;;;;;5059787;28;19918;-86
2023/05/05 10:03:59;;;;;;;;;;;30.80;44.20;;;;;;5057167;28;19913;-87
2023/05/05 10:06:45;;;;;;;;;;;30.30;45.00;;;;;;5054370;28;20101;-86
2023/05/05 10:09:11;;;;;;;;;;;30.20;45.10;;;;;;5050025;28;19908;-86
2023/05/05 10:11:38;;;;;;;;;;;29.80;45.30;;;;;;5049490;28;19919;-87
2023/05/05 10:14:06;;;;;;;;;;;29.40;45.60;;;;;;5055535;28;19966;-87
2023/05/05 10:16:34;;;;;;;;;;;29.10;45.90;;;;;;5058472;28;20316;-86
2023/05/05 10:19:01;;;;;;;;;;;28.70;46.20;;;;;;5074461;28;20031;-86
2023/05/05 10:21:28;;;;;;;;;;;28.40;46.40;;;;;;5057580;28;20248;-87
2023/05/05 10:23:56;;;;;;;;;;;28.20;46.70;;;;;;5057434;28;19995;-86
2023/05/05 10:26:25;;;;;;;;;;;28.00;46.90;;;;;;5074865;28;20007;-86
2023/05/05 10:28:54;;;;;;;;;;;27.80;47.10;;;;;;5057607;28;19909;-86
2023/05/05 10:31:23;;;;;;;;;;;27.70;47.40;;;;;;5057267;28;20344;-87
2023/05/05 10:33:54;;;;;;;;;;;27.60;47.50;;;;;;5057263;28;20436;-87
2023/05/05 10:36:20;;;;;;;;;;;27.50;47.70;;;;;;5070465;28;19908;-87
2023/05/05 10:38:47;;;;;;;;;;;27.40;47.80;;;;;;5064279;28;19935;-87
2023/05/05 10:41:13;;;;;;;;;;;27.20;48.00;;;;;;5066107;28;19915;-87
2023/05/05 10:43:38;;;;;;;;;;;27.10;48.20;;;;;;5045828;28;19908;-87
2023/05/05 10:46:04;;;;;;;;;;;26.90;48.30;;;;;;5047368;28;19946;-87
2023/05/05 10:48:30;;;;;;;;;;;26.80;48.50;;;;;;5046552;28;20171;-87
2023/05/05 10:51:00;;;;;;;;;;;26.70;48.60;;;;;;5046652;28;19909;-87
2023/05/05 10:53:40;;;;;;;;;;;26.70;48.80;;;;;;5047097;28;19935;-86
2023/05/05 10:56:11;;;;;;;;;;;26.60;48.90;;;;;;5063393;28;19909;-87
2023/05/05 10:58:38;;;;;;;;;;;26.50;49.10;;;;;;5046186;28;20461;-87
2023/05/05 11:01:04;;;;;;;;;;;26.50;49.10;;;;;;5065277;28;19999;-87
2023/05/05 11:03:30;;;;;;;;;;;26.40;49.20;;;;;;5048155;28;19970;-86
2023/05/05 11:06:08;;;;;;;;;;;26.40;49.30;;;;;;5045299;28;19920;-87
2023/05/05 11:08:34;;;;;;;;;;;26.40;49.40;;;;;;5046398;28;20177;-87
2023/05/05 11:11:00;;;;;;;;;;;26.30;49.40;;;;;;5045952;28;19909;-87
2023/05/05 11:13:26;;;;;;;;;;;26.30;49.50;;;;;;5046718;28;20167;-87
2023/05/05 11:15:55;;;;;;;;;;;26.30;49.60;;;;;;5046889;28;20375;-87
2023/05/05 11:18:34;;;;;;;;;;;26.30;49.60;;;;;;5047901;28;20399;-87
2023/05/05 11:21:00;;;;;;;;;;;26.30;49.70;;;;;;5047481;28;19918;-86
2023/05/05 11:23:26;;;;;;;;;;;26.20;49.70;;;;;;5063789;28;19909;-86
2023/05/05 11:25:52;;;;;;;;;;;26.20;49.90;;;;;;5046950;28;20073;-86
2023/05/05 11:28:20;;;;;;;;;;;26.10;50.00;;;;;;5048595;28;19945;-86
2023/05/05 11:30:55;;;;;;;;;;;26.00;50.10;;;;;;5051558;28;19908;-87
2023/05/05 11:33:24;;;;;;;;;;;25.90;50.30;;;;;;5067734;28;19908;-87
2023/05/05 11:36:00;;;;;;;;;;;25.90;50.40;;;;;;5047906;28;19920;-87
2023/05/05 11:38:29;;;;;;;;;;;25.80;50.50;;;;;;5065419;28;19920;-87
2023/05/05 11:40:58;;;;;;;;;;;25.70;50.70;;;;;;5063585;28;19982;-87
2023/05/05 11:43:24;;;;;;;;;;;25.70;50.80;;;;;;5046111;28;19916;-87
2023/05/05 11:46:10;;;;;;;;;;;25.60;50.80;;;;;;5043589;28;19974;-87
2023/05/05 11:48:43;;;;;;;;;;;25.60;51.00;;;;;;5043696;28;19909;-86
2023/05/05 11:51:16;;;;;;;;;;;25.50;51.00;;;;;;5063767;28;19994;-88
2023/05/05 11:53:42;;;;;;;;;;;25.40;51.20;;;;;;5047393;28;19908;-88
2023/05/05 11:56:08;;;;;;;;;;;25.40;51.30;;;;;;5046088;28;19909;-89
2023/05/05 11:58:33;;;;;;;;;;;25.30;51.40;;;;;;5063153;28;19973;-88
2023/05/05 12:00:59;;;;;;;;;;;25.30;51.50;;;;;;5045756;28;20140;-88
2023/05/05 12:03:24;;;;;;;;;;;25.30;51.60;;;;;;5047051;28;20212;-89
2023/05/05 12:05:53;;;;;;;;;;;25.20;51.60;;;;;;5047105;28;20005;-89
2023/05/05 12:08:19;;;;;;;;;;;25.20;51.70;;;;;;5063629;28;20307;-90
2023/05/05 12:10:45;;;;;;;;;;;25.20;51.80;;;;;;5045379;28;20007;-88
2023/05/05 12:13:17;;;;;;;;;;;25.20;51.90;;;;;;5046250;28;19908;-88
2023/05/05 12:15:43;;;;;;;;;;;25.10;52.00;;;;;;5047590;28;19943;-88
2023/05/05 12:18:26;;;;;;;;;;;25.10;52.10;;;;;;5063623;28;20243;-88
2023/05/05 12:20:52;;;;;;;;;;;25.10;52.20;;;;;;5066021;28;20082;-89
2023/05/05 12:23:18;;;;;;;;;;;25.00;52.30;;;;;;5045296;28;20141;-86
2023/05/05 12:25:44;;;;;;;;;;;25.00;52.50;;;;;;5045748;28;19916;-89
2023/05/05 12:28:10;;;;;;;;;;;24.90;52.50;;;;;;5061458;28;19908;-89
2023/05/05 12:30:35;;;;;;;;;;;24.90;52.70;;;;;;5045411;28;20255;-89
2023/05/05 12:33:02;;;;;;;;;;;24.80;52.80;;;;;;5045909;28;19943;-87
2023/05/05 12:35:28;;;;;;;;;;;24.70;52.90;;;;;;5063647;28;19931;-88
2023/05/05 12:37:54;;;;;;;;;;;24.70;53.00;;;;;;5047905;28;19923;-87
2023/05/05 12:40:38;;;;;;;;;;;24.60;53.10;;;;;;5047569;28;19967;-86
2023/05/05 12:43:04;;;;;;;;;;;24.60;53.20;;;;;;5044444;28;19908;-86
2023/05/05 12:45:30;;;;;;;;;;;24.50;53.30;;;;;;5044596;28;19935;-86
2023/05/05 12:47:56;;;;;;;;;;;24.50;53.40;;;;;;5044671;28;19920;-86
2023/05/05 12:50:31;;;;;;;;;;;24.40;53.50;;;;;;5045559;28;19999;-87
2023/05/05 12:52:57;;;;;;;;;;;24.40;53.60;;;;;;5044415;28;19923;-86
2023/05/05 12:55:44;;;;;;;;;;;24.40;53.70;;;;;;5045648;28;19909;-86
2023/05/05 12:58:10;;;;;;;;;;;24.30;53.80;;;;;;5048309;28;19917;-86
2023/05/05 13:00:35;;;;;;;;;;;24.30;53.90;;;;;;5050804;28;19912;-86
2023/05/05 13:03:01;;;;;;;;;;;24.20;54.00;;;;;;5047356;28;19970;-86
2023/05/05 13:05:31;;;;;;;;;;;24.20;54.20;;;;;;5046431;28;19912;-86
2023/05/05 13:07:57;;;;;;;;;;;24.10;54.20;;;;;;5047457;28;19908;-86
2023/05/05 13:10:23;;;;;;;;;;;24.10;54.30;;;;;;5069484;28;20029;-86
2023/05/05 13:12:50;;;;;;;;;;;24.10;54.50;;;;;;5047556;28;20113;-86
2023/05/05 13:15:15;;;;;;;;;;;24.10;54.50;;;;;;5049241;28;19916;-86
2023/05/05 13:17:41;;;;;;;;;;;24.00;54.60;;;;;;5047623;28;19909;-86
2023/05/05 13:20:08;;;;;;;;;;;24.00;54.60;;;;;;5049802;28;20250;-86
2023/05/05 13:22:35;;;;;;;;;;;24.00;54.70;;;;;;5067062;28;19908;-86
2023/05/05 13:25:00;;;;;;;;;;;24.00;54.80;;;;;;5048124;28;19923;-86
2023/05/05 13:27:28;;;;;;;;;;;24.00;54.80;;;;;;5046642;28;19908;-86
2023/05/05 13:29:54;;;;;;;;;;;24.00;54.70;;;;;;5048199;28;19908;-86
2023/05/05 13:32:19;;;;;;;;;;;23.90;54.90;;;;;;5068776;28;19908;-86
2023/05/05 13:34:45;;;;;;;;;;;24.00;55.00;;;;;;5054812;28;20208;-86
2023/05/05 13:37:10;;;;;;;;;;;24.00;55.00;;;;;;5071259;28;19908;-86
2023/05/05 13:39:36;;;;;;;;;;;24.00;55.00;;;;;;5053519;28;20169;-86
2023/05/05 13:42:01;;;;;;;;;;;24.00;55.00;;;;;;5053786;28;19948;-86
2023/05/05 13:44:27;;;;;;;;;;;24.00;55.10;;;;;;5054744;28;19909;-86
2023/05/05 13:46:52;;;;;;;;;;;24.00;55.10;;;;;;5057065;28;19959;-86
2023/05/05 13:49:18;;;;;;;;;;;24.00;55.10;;;;;;5055432;28;19924;-85
2023/05/05 13:51:45;;;;;;;;;;;24.00;55.10;;;;;;5053384;28;20086;-85
2023/05/05 13:54:11;;;;;;;;;;;24.00;55.20;;;;;;5054469;28;19909;-86
2023/05/05 13:56:36;;;;;;;;;;;24.00;55.20;;;;;;5072791;28;19999;-86
2023/05/05 13:59:02;;;;;;;;;;;24.00;55.20;;;;;;5053546;28;19915;-86
2023/05/05 14:01:28;;;;;;;;;;;24.00;55.20;;;;;;5072228;28;20154;-86
2023/05/05 14:03:54;;;;;;;;;;;24.00;55.30;;;;;;5070431;28;19955;-86
2023/05/05 14:06:20;;;;;;;;;;;24.00;55.30;;;;;;5068917;28;19928;-86
2023/05/05 14:08:45;;;;;;;;;;;24.00;55.30;;;;;;5049397;28;19912;-86
2023/05/05 14:11:12;;;;;;;;;;;24.00;55.30;;;;;;5052621;28;19905;-87
2023/05/05 14:13:39;;;;;;;;;;;24.00;55.90;;;;;;5054742;28;19914;-86
2023/05/05 14:16:05;;;;;;;;;;;24.00;55.50;;;;;;5049986;28;19909;-87